sensor_id;sensor_type;location;lat;lon;timestamp;P1;durP1;ratioP1;P2;durP2;ratioP2
10430;SDS011;5262;59.958;17.726;2023-02-15T00:01:41;24.57;;;12.63;;
10430;SDS011;5262;59.958;17.726;2023-02-15T00:04:07;22.17;;;10.87;;
10430;SDS011;5262;59.958;17.726;2023-02-15T00:06:34;36.30;;;12.07;;
10430;SDS011;5262;59.958;17.726;2023-02-15T00:09:00;29.73;;;12.83;;
10430;SDS011;5262;59.958;17.726;2023-02-15T00:11:26;26.23;;;12.70;;
10430;SDS011;5262;59.958;17.726;2023-02-15T00:16:49;29.00;;;11.73;;
10430;SDS011;5262;59.958;17.726;2023-02-15T00:19:17;23.37;;;11.40;;
10430;SDS011;5262;59.958;17.726;2023-02-15T00:21:44;22.77;;;11.53;;
10430;SDS011;5262;59.958;17.726;2023-02-15T00:24:11;30.37;;;12.37;;
10430;SDS011;5262;59.958;17.726;2023-02-15T00:26:38;24.87;;;11.80;;
10430;SDS011;5262;59.958;17.726;2023-02-15T00:29:05;23.93;;;11.53;;
10430;SDS011;5262;59.958;17.726;2023-02-15T00:31:32;22.77;;;10.33;;
10430;SDS011;5262;59.958;17.726;2023-02-15T00:34:05;20.00;;;10.67;;
10430;SDS011;5262;59.958;17.726;2023-02-15T00:36:31;17.30;;;10.17;;
10430;SDS011;5262;59.958;17.726;2023-02-15T00:38:57;24.70;;;10.13;;
10430;SDS011;5262;59.958;17.726;2023-02-15T00:41:23;21.27;;;10.00;;
10430;SDS011;5262;59.958;17.726;2023-02-15T00:43:48;19.47;;;10.23;;
10430;SDS011;5262;59.958;17.726;2023-02-15T00:46:14;17.43;;;9.60;;
10430;SDS011;5262;59.958;17.726;2023-02-15T00:48:40;13.90;;;9.07;;
10430;SDS011;5262;59.958;17.726;2023-02-15T00:51:05;15.97;;;9.93;;
10430;SDS011;5262;59.958;17.726;2023-02-15T00:53:31;15.67;;;9.00;;
10430;SDS011;5262;59.958;17.726;2023-02-15T00:55:57;19.00;;;9.53;;
10430;SDS011;5262;59.958;17.726;2023-02-15T00:58:23;17.57;;;8.87;;
10430;SDS011;5262;59.958;17.726;2023-02-15T01:00:49;14.93;;;9.13;;
10430;SDS011;5262;59.958;17.726;2023-02-15T01:03:16;16.20;;;7.97;;
10430;SDS011;5262;59.958;17.726;2023-02-15T01:05:43;18.07;;;8.50;;
10430;SDS011;5262;59.958;17.726;2023-02-15T01:08:08;16.87;;;8.27;;
10430;SDS011;5262;59.958;17.726;2023-02-15T01:10:34;13.57;;;7.80;;
10430;SDS011;5262;59.958;17.726;2023-02-15T01:13:00;16.97;;;8.53;;
10430;SDS011;5262;59.958;17.726;2023-02-15T01:15:26;14.57;;;9.03;;
10430;SDS011;5262;59.958;17.726;2023-02-15T01:17:52;16.73;;;8.37;;
10430;SDS011;5262;59.958;17.726;2023-02-15T01:20:23;16.27;;;7.87;;
10430;SDS011;5262;59.958;17.726;2023-02-15T01:22:51;13.07;;;7.00;;
10430;SDS011;5262;59.958;17.726;2023-02-15T01:25:18;11.63;;;7.50;;
10430;SDS011;5262;59.958;17.726;2023-02-15T01:27:45;11.83;;;7.07;;
10430;SDS011;5262;59.958;17.726;2023-02-15T01:30:11;11.97;;;6.90;;
10430;SDS011;5262;59.958;17.726;2023-02-15T01:32:38;18.73;;;7.93;;
10430;SDS011;5262;59.958;17.726;2023-02-15T01:35:04;9.27;;;6.40;;
10430;SDS011;5262;59.958;17.726;2023-02-15T01:37:30;10.27;;;6.93;;
10430;SDS011;5262;59.958;17.726;2023-02-15T01:39:57;9.80;;;5.90;;
10430;SDS011;5262;59.958;17.726;2023-02-15T01:42:25;10.23;;;6.43;;
10430;SDS011;5262;59.958;17.726;2023-02-15T01:49:52;9.60;;;5.77;;
10430;SDS011;5262;59.958;17.726;2023-02-15T01:52:52;11.33;;;6.10;;
10430;SDS011;5262;59.958;17.726;2023-02-15T01:55:21;9.70;;;5.47;;
10430;SDS011;5262;59.958;17.726;2023-02-15T01:57:50;9.37;;;5.80;;
10430;SDS011;5262;59.958;17.726;2023-02-15T02:00:16;17.53;;;5.27;;
10430;SDS011;5262;59.958;17.726;2023-02-15T02:02:43;18.57;;;5.90;;
10430;SDS011;5262;59.958;17.726;2023-02-15T02:05:13;9.40;;;5.70;;
10430;SDS011;5262;59.958;17.726;2023-02-15T02:07:39;12.33;;;4.87;;
10430;SDS011;5262;59.958;17.726;2023-02-15T02:10:08;8.33;;;5.20;;
10430;SDS011;5262;59.958;17.726;2023-02-15T02:12:37;7.87;;;5.47;;
10430;SDS011;5262;59.958;17.726;2023-02-15T02:15:05;7.37;;;5.30;;
10430;SDS011;5262;59.958;17.726;2023-02-15T02:38:22;7.83;;;5.20;;
10430;SDS011;5262;59.958;17.726;2023-02-15T02:41:11;8.13;;;5.57;;
10430;SDS011;5262;59.958;17.726;2023-02-15T02:44:07;9.17;;;5.80;;
10430;SDS011;5262;59.958;17.726;2023-02-15T02:46:55;9.27;;;5.63;;
10430;SDS011;5262;59.958;17.726;2023-02-15T02:52:07;7.77;;;5.60;;
10430;SDS011;5262;59.958;17.726;2023-02-15T02:54:51;8.93;;;5.40;;
10430;SDS011;5262;59.958;17.726;2023-02-15T02:57:18;8.90;;;6.33;;
10430;SDS011;5262;59.958;17.726;2023-02-15T02:59:44;10.23;;;6.60;;
10430;SDS011;5262;59.958;17.726;2023-02-15T03:02:16;9.63;;;6.83;;
10430;SDS011;5262;59.958;17.726;2023-02-15T03:04:52;12.93;;;6.67;;
10430;SDS011;5262;59.958;17.726;2023-02-15T03:07:28;8.87;;;6.43;;
10430;SDS011;5262;59.958;17.726;2023-02-15T03:09:57;11.57;;;6.57;;
10430;SDS011;5262;59.958;17.726;2023-02-15T03:12:35;8.53;;;6.50;;
10430;SDS011;5262;59.958;17.726;2023-02-15T03:15:05;10.30;;;6.23;;
10430;SDS011;5262;59.958;17.726;2023-02-15T03:17:44;10.40;;;6.33;;
10430;SDS011;5262;59.958;17.726;2023-02-15T03:20:14;12.70;;;6.73;;
10430;SDS011;5262;59.958;17.726;2023-02-15T03:22:54;12.00;;;6.17;;
10430;SDS011;5262;59.958;17.726;2023-02-15T03:25:27;8.50;;;6.30;;
10430;SDS011;5262;59.958;17.726;2023-02-15T03:27:59;11.00;;;5.63;;
10430;SDS011;5262;59.958;17.726;2023-02-15T03:30:38;11.77;;;7.00;;
10430;SDS011;5262;59.958;17.726;2023-02-15T03:33:07;10.83;;;7.30;;
10430;SDS011;5262;59.958;17.726;2023-02-15T03:35:43;8.63;;;6.40;;
10430;SDS011;5262;59.958;17.726;2023-02-15T03:38:26;10.00;;;6.57;;
10430;SDS011;5262;59.958;17.726;2023-02-15T03:40:57;13.57;;;7.13;;
10430;SDS011;5262;59.958;17.726;2023-02-15T03:46:20;9.70;;;6.20;;
10430;SDS011;5262;59.958;17.726;2023-02-15T03:49:08;11.93;;;6.57;;
10430;SDS011;5262;59.958;17.726;2023-02-15T03:51:40;8.80;;;5.93;;
10430;SDS011;5262;59.958;17.726;2023-02-15T03:57:03;8.77;;;6.20;;
10430;SDS011;5262;59.958;17.726;2023-02-15T03:59:48;12.70;;;6.80;;
10430;SDS011;5262;59.958;17.726;2023-02-15T04:02:38;11.93;;;6.40;;
10430;SDS011;5262;59.958;17.726;2023-02-15T04:05:13;10.23;;;5.87;;
10430;SDS011;5262;59.958;17.726;2023-02-15T04:07:39;9.60;;;5.83;;
10430;SDS011;5262;59.958;17.726;2023-02-15T04:10:04;11.03;;;6.70;;
10430;SDS011;5262;59.958;17.726;2023-02-15T04:12:50;12.47;;;7.07;;
10430;SDS011;5262;59.958;17.726;2023-02-15T04:15:28;8.47;;;6.00;;
10430;SDS011;5262;59.958;17.726;2023-02-15T04:18:13;16.57;;;6.93;;
10430;SDS011;5262;59.958;17.726;2023-02-15T04:20:39;9.37;;;6.20;;
10430;SDS011;5262;59.958;17.726;2023-02-15T04:23:26;9.87;;;6.10;;
10430;SDS011;5262;59.958;17.726;2023-02-15T04:26:10;10.47;;;6.80;;
10430;SDS011;5262;59.958;17.726;2023-02-15T04:28:36;12.73;;;6.20;;
10430;SDS011;5262;59.958;17.726;2023-02-15T04:31:02;10.90;;;6.43;;
10430;SDS011;5262;59.958;17.726;2023-02-15T04:33:27;9.63;;;6.43;;
10430;SDS011;5262;59.958;17.726;2023-02-15T04:35:53;9.77;;;5.87;;
10430;SDS011;5262;59.958;17.726;2023-02-15T04:38:18;13.47;;;6.53;;
10430;SDS011;5262;59.958;17.726;2023-02-15T04:40:44;10.53;;;6.93;;
10430;SDS011;5262;59.958;17.726;2023-02-15T04:43:15;9.10;;;6.10;;
10430;SDS011;5262;59.958;17.726;2023-02-15T04:45:40;8.47;;;6.03;;
10430;SDS011;5262;59.958;17.726;2023-02-15T04:48:06;12.57;;;6.83;;
10430;SDS011;5262;59.958;17.726;2023-02-15T04:50:32;9.93;;;6.40;;
10430;SDS011;5262;59.958;17.726;2023-02-15T04:52:58;11.97;;;6.73;;
10430;SDS011;5262;59.958;17.726;2023-02-15T04:55:23;12.27;;;6.57;;
10430;SDS011;5262;59.958;17.726;2023-02-15T04:57:49;13.80;;;6.93;;
10430;SDS011;5262;59.958;17.726;2023-02-15T05:00:14;13.83;;;6.87;;
10430;SDS011;5262;59.958;17.726;2023-02-15T05:02:40;11.07;;;6.67;;
10430;SDS011;5262;59.958;17.726;2023-02-15T05:05:06;11.00;;;6.70;;
10430;SDS011;5262;59.958;17.726;2023-02-15T05:07:34;11.50;;;6.30;;
10430;SDS011;5262;59.958;17.726;2023-02-15T05:09:59;11.50;;;6.73;;
10430;SDS011;5262;59.958;17.726;2023-02-15T05:12:25;11.30;;;6.43;;
10430;SDS011;5262;59.958;17.726;2023-02-15T05:14:51;12.00;;;6.70;;
10430;SDS011;5262;59.958;17.726;2023-02-15T05:17:16;14.33;;;6.70;;
10430;SDS011;5262;59.958;17.726;2023-02-15T05:19:42;10.30;;;6.90;;
10430;SDS011;5262;59.958;17.726;2023-02-15T05:22:07;12.07;;;6.83;;
10430;SDS011;5262;59.958;17.726;2023-02-15T05:24:33;15.83;;;7.70;;
10430;SDS011;5262;59.958;17.726;2023-02-15T05:27:17;13.30;;;7.57;;
10430;SDS011;5262;59.958;17.726;2023-02-15T05:30:01;14.60;;;7.20;;
10430;SDS011;5262;59.958;17.726;2023-02-15T05:32:27;12.57;;;7.40;;
10430;SDS011;5262;59.958;17.726;2023-02-15T05:34:53;12.63;;;7.17;;
10430;SDS011;5262;59.958;17.726;2023-02-15T05:37:18;11.93;;;7.37;;
10430;SDS011;5262;59.958;17.726;2023-02-15T05:39:44;11.47;;;7.50;;
10430;SDS011;5262;59.958;17.726;2023-02-15T05:42:09;14.93;;;7.50;;
10430;SDS011;5262;59.958;17.726;2023-02-15T05:44:35;11.97;;;7.70;;
10430;SDS011;5262;59.958;17.726;2023-02-15T05:47:01;12.77;;;7.73;;
10430;SDS011;5262;59.958;17.726;2023-02-15T05:49:27;13.03;;;7.37;;
10430;SDS011;5262;59.958;17.726;2023-02-15T05:51:53;13.03;;;7.23;;
10430;SDS011;5262;59.958;17.726;2023-02-15T05:54:19;13.17;;;7.73;;
10430;SDS011;5262;59.958;17.726;2023-02-15T05:56:45;12.70;;;8.10;;
10430;SDS011;5262;59.958;17.726;2023-02-15T05:59:10;13.70;;;8.50;;
10430;SDS011;5262;59.958;17.726;2023-02-15T06:01:37;14.57;;;7.70;;
10430;SDS011;5262;59.958;17.726;2023-02-15T06:04:03;15.20;;;8.67;;
10430;SDS011;5262;59.958;17.726;2023-02-15T06:06:29;14.53;;;7.93;;
10430;SDS011;5262;59.958;17.726;2023-02-15T06:08:54;14.37;;;8.27;;
10430;SDS011;5262;59.958;17.726;2023-02-15T06:11:20;14.77;;;8.73;;
10430;SDS011;5262;59.958;17.726;2023-02-15T06:13:45;14.67;;;9.07;;
10430;SDS011;5262;59.958;17.726;2023-02-15T06:16:11;17.77;;;8.30;;
10430;SDS011;5262;59.958;17.726;2023-02-15T06:18:37;13.83;;;8.80;;
10430;SDS011;5262;59.958;17.726;2023-02-15T06:21:02;14.10;;;8.67;;
10430;SDS011;5262;59.958;17.726;2023-02-15T06:23:28;17.63;;;8.70;;
10430;SDS011;5262;59.958;17.726;2023-02-15T06:25:54;12.77;;;8.10;;
10430;SDS011;5262;59.958;17.726;2023-02-15T06:28:19;18.87;;;8.60;;
10430;SDS011;5262;59.958;17.726;2023-02-15T06:30:45;14.37;;;8.90;;
10430;SDS011;5262;59.958;17.726;2023-02-15T06:33:11;21.50;;;8.40;;
10430;SDS011;5262;59.958;17.726;2023-02-15T06:35:37;17.33;;;8.93;;
10430;SDS011;5262;59.958;17.726;2023-02-15T06:38:02;13.93;;;8.23;;
10430;SDS011;5262;59.958;17.726;2023-02-15T06:40:28;14.17;;;8.83;;
10430;SDS011;5262;59.958;17.726;2023-02-15T06:42:54;13.80;;;8.97;;
10430;SDS011;5262;59.958;17.726;2023-02-15T06:45:19;13.37;;;9.47;;
10430;SDS011;5262;59.958;17.726;2023-02-15T06:47:45;14.53;;;8.40;;
10430;SDS011;5262;59.958;17.726;2023-02-15T06:50:11;15.17;;;8.97;;
10430;SDS011;5262;59.958;17.726;2023-02-15T06:52:37;14.00;;;8.87;;
10430;SDS011;5262;59.958;17.726;2023-02-15T06:55:03;17.57;;;9.90;;
10430;SDS011;5262;59.958;17.726;2023-02-15T06:57:29;19.87;;;9.70;;
10430;SDS011;5262;59.958;17.726;2023-02-15T06:59:55;16.63;;;8.90;;
10430;SDS011;5262;59.958;17.726;2023-02-15T07:02:20;14.60;;;8.40;;
10430;SDS011;5262;59.958;17.726;2023-02-15T07:04:46;13.30;;;8.77;;
10430;SDS011;5262;59.958;17.726;2023-02-15T07:07:11;18.67;;;9.53;;
10430;SDS011;5262;59.958;17.726;2023-02-15T07:09:37;16.70;;;8.80;;
10430;SDS011;5262;59.958;17.726;2023-02-15T07:12:04;17.83;;;9.73;;
10430;SDS011;5262;59.958;17.726;2023-02-15T07:14:48;16.87;;;9.10;;
10430;SDS011;5262;59.958;17.726;2023-02-15T07:17:14;15.90;;;10.03;;
10430;SDS011;5262;59.958;17.726;2023-02-15T07:19:40;17.00;;;9.77;;
10430;SDS011;5262;59.958;17.726;2023-02-15T07:22:05;16.57;;;8.70;;
10430;SDS011;5262;59.958;17.726;2023-02-15T07:24:31;17.93;;;9.77;;
10430;SDS011;5262;59.958;17.726;2023-02-15T07:26:56;15.20;;;9.20;;
10430;SDS011;5262;59.958;17.726;2023-02-15T07:29:25;16.23;;;9.40;;
10430;SDS011;5262;59.958;17.726;2023-02-15T07:31:51;18.93;;;10.63;;
10430;SDS011;5262;59.958;17.726;2023-02-15T07:34:16;18.73;;;9.97;;
10430;SDS011;5262;59.958;17.726;2023-02-15T07:36:42;16.60;;;9.47;;
10430;SDS011;5262;59.958;17.726;2023-02-15T07:39:09;21.50;;;9.83;;
10430;SDS011;5262;59.958;17.726;2023-02-15T07:41:35;16.57;;;9.70;;
10430;SDS011;5262;59.958;17.726;2023-02-15T07:44:01;15.53;;;9.40;;
10430;SDS011;5262;59.958;17.726;2023-02-15T07:46:27;17.37;;;9.53;;
10430;SDS011;5262;59.958;17.726;2023-02-15T07:48:53;18.47;;;9.17;;
10430;SDS011;5262;59.958;17.726;2023-02-15T07:51:19;19.53;;;10.53;;
10430;SDS011;5262;59.958;17.726;2023-02-15T07:53:44;15.83;;;9.10;;
10430;SDS011;5262;59.958;17.726;2023-02-15T07:56:11;18.27;;;9.87;;
10430;SDS011;5262;59.958;17.726;2023-02-15T07:58:38;17.07;;;9.37;;
10430;SDS011;5262;59.958;17.726;2023-02-15T08:01:16;16.20;;;9.60;;
10430;SDS011;5262;59.958;17.726;2023-02-15T08:03:43;18.00;;;9.73;;
10430;SDS011;5262;59.958;17.726;2023-02-15T08:06:08;16.70;;;9.07;;
10430;SDS011;5262;59.958;17.726;2023-02-15T08:08:36;16.50;;;9.63;;
10430;SDS011;5262;59.958;17.726;2023-02-15T08:16:39;18.13;;;8.83;;
10430;SDS011;5262;59.958;17.726;2023-02-15T08:19:06;17.30;;;9.23;;
10430;SDS011;5262;59.958;17.726;2023-02-15T08:21:36;18.80;;;9.17;;
10430;SDS011;5262;59.958;17.726;2023-02-15T08:24:03;16.80;;;9.37;;
10430;SDS011;5262;59.958;17.726;2023-02-15T08:26:30;14.03;;;8.90;;
10430;SDS011;5262;59.958;17.726;2023-02-15T08:28:57;17.07;;;9.23;;
10430;SDS011;5262;59.958;17.726;2023-02-15T08:31:23;16.60;;;9.47;;
10430;SDS011;5262;59.958;17.726;2023-02-15T08:33:49;16.23;;;9.00;;
10430;SDS011;5262;59.958;17.726;2023-02-15T08:36:17;18.43;;;9.73;;
10430;SDS011;5262;59.958;17.726;2023-02-15T08:38:45;16.73;;;9.37;;
10430;SDS011;5262;59.958;17.726;2023-02-15T08:43:36;17.57;;;9.20;;
10430;SDS011;5262;59.958;17.726;2023-02-15T08:46:03;17.07;;;8.27;;
10430;SDS011;5262;59.958;17.726;2023-02-15T08:48:29;16.87;;;10.00;;
10430;SDS011;5262;59.958;17.726;2023-02-15T08:50:54;16.33;;;10.17;;
10430;SDS011;5262;59.958;17.726;2023-02-15T08:53:20;18.33;;;9.67;;
10430;SDS011;5262;59.958;17.726;2023-02-15T08:55:47;17.80;;;8.83;;
10430;SDS011;5262;59.958;17.726;2023-02-15T08:58:19;16.30;;;8.20;;
10430;SDS011;5262;59.958;17.726;2023-02-15T09:00:45;15.20;;;8.13;;
10430;SDS011;5262;59.958;17.726;2023-02-15T09:03:11;15.73;;;8.77;;
10430;SDS011;5262;59.958;17.726;2023-02-15T09:05:36;18.83;;;8.87;;
10430;SDS011;5262;59.958;17.726;2023-02-15T09:08:02;18.17;;;9.43;;
10430;SDS011;5262;59.958;17.726;2023-02-15T09:10:27;18.43;;;9.37;;
10430;SDS011;5262;59.958;17.726;2023-02-15T09:12:53;16.47;;;8.53;;
10430;SDS011;5262;59.958;17.726;2023-02-15T09:15:18;16.23;;;8.87;;
10430;SDS011;5262;59.958;17.726;2023-02-15T09:17:44;16.23;;;8.97;;
10430;SDS011;5262;59.958;17.726;2023-02-15T09:20:10;14.77;;;8.97;;
10430;SDS011;5262;59.958;17.726;2023-02-15T09:22:35;14.70;;;9.10;;
10430;SDS011;5262;59.958;17.726;2023-02-15T09:25:01;13.10;;;7.97;;
10430;SDS011;5262;59.958;17.726;2023-02-15T09:27:27;13.97;;;7.83;;
10430;SDS011;5262;59.958;17.726;2023-02-15T09:29:54;17.87;;;8.87;;
10430;SDS011;5262;59.958;17.726;2023-02-15T09:32:19;17.93;;;7.97;;
10430;SDS011;5262;59.958;17.726;2023-02-15T09:34:45;15.43;;;7.80;;
10430;SDS011;5262;59.958;17.726;2023-02-15T09:37:10;12.60;;;8.27;;
10430;SDS011;5262;59.958;17.726;2023-02-15T09:39:37;15.33;;;8.93;;
10430;SDS011;5262;59.958;17.726;2023-02-15T09:50:07;14.47;;;7.77;;
10430;SDS011;5262;59.958;17.726;2023-02-15T10:01:11;14.90;;;7.83;;
10430;SDS011;5262;59.958;17.726;2023-02-15T10:03:44;13.47;;;7.47;;
10430;SDS011;5262;59.958;17.726;2023-02-15T10:09:10;15.40;;;8.77;;
10430;SDS011;5262;59.958;17.726;2023-02-15T10:21:03;12.87;;;7.53;;
10430;SDS011;5262;59.958;17.726;2023-02-15T10:29:35;14.77;;;7.93;;
10430;SDS011;5262;59.958;17.726;2023-02-15T10:34:52;13.90;;;7.47;;
10430;SDS011;5262;59.958;17.726;2023-02-15T10:48:07;13.63;;;7.13;;
10430;SDS011;5262;59.958;17.726;2023-02-15T10:55:54;15.70;;;8.13;;
10430;SDS011;5262;59.958;17.726;2023-02-15T11:06:57;19.60;;;9.07;;
10430;SDS011;5262;59.958;17.726;2023-02-15T11:09:29;14.37;;;8.87;;
10430;SDS011;5262;59.958;17.726;2023-02-15T11:12:02;13.83;;;7.90;;
10430;SDS011;5262;59.958;17.726;2023-02-15T11:14:40;17.10;;;8.30;;
10430;SDS011;5262;59.958;17.726;2023-02-15T11:17:24;16.03;;;8.00;;
10430;SDS011;5262;59.958;17.726;2023-02-15T11:22:43;12.13;;;7.37;;
10430;SDS011;5262;59.958;17.726;2023-02-15T11:25:16;17.83;;;8.30;;
10430;SDS011;5262;59.958;17.726;2023-02-15T11:27:45;16.00;;;8.30;;
10430;SDS011;5262;59.958;17.726;2023-02-15T11:30:15;14.73;;;8.23;;
10430;SDS011;5262;59.958;17.726;2023-02-15T11:32:57;13.03;;;8.17;;
10430;SDS011;5262;59.958;17.726;2023-02-15T11:37:57;16.67;;;8.70;;
10430;SDS011;5262;59.958;17.726;2023-02-15T11:40:36;16.40;;;8.43;;
10430;SDS011;5262;59.958;17.726;2023-02-15T11:46:13;14.07;;;7.87;;
10430;SDS011;5262;59.958;17.726;2023-02-15T11:48:40;14.73;;;8.30;;
10430;SDS011;5262;59.958;17.726;2023-02-15T11:51:08;15.77;;;8.20;;
10430;SDS011;5262;59.958;17.726;2023-02-15T11:53:37;18.57;;;9.10;;
10430;SDS011;5262;59.958;17.726;2023-02-15T11:56:04;16.90;;;8.10;;
10430;SDS011;5262;59.958;17.726;2023-02-15T12:03:43;16.33;;;8.50;;
10430;SDS011;5262;59.958;17.726;2023-02-15T12:08:47;15.43;;;8.60;;
10430;SDS011;5262;59.958;17.726;2023-02-15T12:11:19;14.93;;;8.70;;
10430;SDS011;5262;59.958;17.726;2023-02-15T12:14:07;20.07;;;9.37;;
10430;SDS011;5262;59.958;17.726;2023-02-15T12:16:39;18.43;;;9.40;;
10430;SDS011;5262;59.958;17.726;2023-02-15T12:19:21;15.73;;;8.37;;
10430;SDS011;5262;59.958;17.726;2023-02-15T12:21:57;14.40;;;8.00;;
10430;SDS011;5262;59.958;17.726;2023-02-15T12:24:28;18.23;;;8.80;;
10430;SDS011;5262;59.958;17.726;2023-02-15T12:29:34;19.10;;;8.43;;
10430;SDS011;5262;59.958;17.726;2023-02-15T12:32:05;17.73;;;8.87;;
10430;SDS011;5262;59.958;17.726;2023-02-15T12:34:37;15.57;;;8.07;;
10430;SDS011;5262;59.958;17.726;2023-02-15T12:37:16;16.57;;;8.70;;
10430;SDS011;5262;59.958;17.726;2023-02-15T12:39:57;16.40;;;8.23;;
10430;SDS011;5262;59.958;17.726;2023-02-15T12:42:25;15.43;;;8.37;;
10430;SDS011;5262;59.958;17.726;2023-02-15T12:47:44;19.43;;;9.30;;
10430;SDS011;5262;59.958;17.726;2023-02-15T12:52:51;18.23;;;8.50;;
10430;SDS011;5262;59.958;17.726;2023-02-15T12:55:30;14.00;;;8.13;;
10430;SDS011;5262;59.958;17.726;2023-02-15T12:58:06;16.60;;;8.33;;
10430;SDS011;5262;59.958;17.726;2023-02-15T13:00:43;16.23;;;8.83;;
10430;SDS011;5262;59.958;17.726;2023-02-15T13:03:16;15.83;;;7.63;;
10430;SDS011;5262;59.958;17.726;2023-02-15T13:05:44;14.67;;;8.43;;
10430;SDS011;5262;59.958;17.726;2023-02-15T13:08:17;14.13;;;8.30;;
10430;SDS011;5262;59.958;17.726;2023-02-15T13:10:53;14.93;;;7.87;;
10430;SDS011;5262;59.958;17.726;2023-02-15T13:13:21;16.63;;;7.87;;
10430;SDS011;5262;59.958;17.726;2023-02-15T13:15:51;15.87;;;8.17;;
10430;SDS011;5262;59.958;17.726;2023-02-15T13:18:27;17.10;;;8.40;;
10430;SDS011;5262;59.958;17.726;2023-02-15T13:21:20;16.20;;;8.13;;
10430;SDS011;5262;59.958;17.726;2023-02-15T13:24:06;15.87;;;8.07;;
10430;SDS011;5262;59.958;17.726;2023-02-15T13:26:42;17.33;;;8.53;;
10430;SDS011;5262;59.958;17.726;2023-02-15T13:29:44;16.80;;;7.83;;
10430;SDS011;5262;59.958;17.726;2023-02-15T13:32:10;15.50;;;8.27;;
10430;SDS011;5262;59.958;17.726;2023-02-15T13:34:40;16.17;;;8.30;;
10430;SDS011;5262;59.958;17.726;2023-02-15T13:37:08;17.67;;;8.77;;
10430;SDS011;5262;59.958;17.726;2023-02-15T13:40:00;18.03;;;8.37;;
10430;SDS011;5262;59.958;17.726;2023-02-15T13:42:38;19.00;;;8.47;;
10430;SDS011;5262;59.958;17.726;2023-02-15T13:50:51;17.30;;;8.80;;
10430;SDS011;5262;59.958;17.726;2023-02-15T13:53:40;16.87;;;7.60;;
10430;SDS011;5262;59.958;17.726;2023-02-15T13:59:05;16.00;;;8.10;;
10430;SDS011;5262;59.958;17.726;2023-02-15T14:12:45;20.97;;;11.00;;
10430;SDS011;5262;59.958;17.726;2023-02-15T14:15:19;20.57;;;9.10;;
10430;SDS011;5262;59.958;17.726;2023-02-15T14:17:55;16.27;;;8.00;;
10430;SDS011;5262;59.958;17.726;2023-02-15T14:23:20;20.17;;;8.93;;
10430;SDS011;5262;59.958;17.726;2023-02-15T14:26:12;15.60;;;7.73;;
10430;SDS011;5262;59.958;17.726;2023-02-15T14:28:43;16.60;;;8.00;;
10430;SDS011;5262;59.958;17.726;2023-02-15T14:31:29;15.97;;;8.93;;
10430;SDS011;5262;59.958;17.726;2023-02-15T14:33:59;17.37;;;8.17;;
10430;SDS011;5262;59.958;17.726;2023-02-15T14:36:25;17.87;;;8.17;;
10430;SDS011;5262;59.958;17.726;2023-02-15T14:42:18;18.10;;;8.47;;
10430;SDS011;5262;59.958;17.726;2023-02-15T14:47:42;15.00;;;7.97;;
10430;SDS011;5262;59.958;17.726;2023-02-15T14:50:35;17.70;;;8.50;;
10430;SDS011;5262;59.958;17.726;2023-02-15T14:53:37;17.40;;;8.33;;
10430;SDS011;5262;59.958;17.726;2023-02-15T15:01:29;17.63;;;8.70;;
10430;SDS011;5262;59.958;17.726;2023-02-15T15:04:13;18.93;;;8.13;;
10430;SDS011;5262;59.958;17.726;2023-02-15T15:06:57;15.63;;;7.60;;
10430;SDS011;5262;59.958;17.726;2023-02-15T15:09:29;18.30;;;8.10;;
10430;SDS011;5262;59.958;17.726;2023-02-15T15:14:49;18.33;;;8.07;;
10430;SDS011;5262;59.958;17.726;2023-02-15T15:18:42;13.70;;;7.47;;
10430;SDS011;5262;59.958;17.726;2023-02-15T15:20:37;20.40;;;8.53;;
10430;SDS011;5262;59.958;17.726;2023-02-15T15:25:45;23.77;;;8.77;;
10430;SDS011;5262;59.958;17.726;2023-02-15T15:31:01;16.67;;;7.67;;
10430;SDS011;5262;59.958;17.726;2023-02-15T15:47:34;16.57;;;8.23;;
10430;SDS011;5262;59.958;17.726;2023-02-15T15:50:24;16.07;;;8.07;;
10430;SDS011;5262;59.958;17.726;2023-02-15T15:52:54;23.03;;;9.20;;
10430;SDS011;5262;59.958;17.726;2023-02-15T15:55:23;21.03;;;9.10;;
10430;SDS011;5262;59.958;17.726;2023-02-15T15:57:52;16.07;;;8.10;;
10430;SDS011;5262;59.958;17.726;2023-02-15T16:02:57;17.60;;;8.83;;
10430;SDS011;5262;59.958;17.726;2023-02-15T16:05:23;18.80;;;8.77;;
10430;SDS011;5262;59.958;17.726;2023-02-15T16:07:49;15.73;;;8.73;;
10430;SDS011;5262;59.958;17.726;2023-02-15T16:10:22;17.80;;;9.03;;
10430;SDS011;5262;59.958;17.726;2023-02-15T16:12:52;22.10;;;9.37;;
10430;SDS011;5262;59.958;17.726;2023-02-15T16:15:20;18.80;;;9.17;;
10430;SDS011;5262;59.958;17.726;2023-02-15T16:17:50;21.63;;;10.27;;
10430;SDS011;5262;59.958;17.726;2023-02-15T16:20:32;18.57;;;8.80;;
10430;SDS011;5262;59.958;17.726;2023-02-15T16:28:18;15.37;;;8.03;;
10430;SDS011;5262;59.958;17.726;2023-02-15T16:30:45;17.77;;;8.13;;
10430;SDS011;5262;59.958;17.726;2023-02-15T16:33:12;16.03;;;8.10;;
10430;SDS011;5262;59.958;17.726;2023-02-15T16:35:41;20.07;;;8.07;;
10430;SDS011;5262;59.958;17.726;2023-02-15T16:41:05;22.77;;;10.97;;
10430;SDS011;5262;59.958;17.726;2023-02-15T16:43:30;19.63;;;9.93;;
10430;SDS011;5262;59.958;17.726;2023-02-15T16:46:04;16.07;;;8.40;;
10430;SDS011;5262;59.958;17.726;2023-02-15T16:48:31;16.40;;;9.90;;
10430;SDS011;5262;59.958;17.726;2023-02-15T16:50:58;16.77;;;7.87;;
10430;SDS011;5262;59.958;17.726;2023-02-15T16:53:28;15.63;;;8.07;;
10430;SDS011;5262;59.958;17.726;2023-02-15T16:55:55;20.60;;;9.80;;
10430;SDS011;5262;59.958;17.726;2023-02-15T16:58:27;19.77;;;8.93;;
10430;SDS011;5262;59.958;17.726;2023-02-15T17:01:08;21.47;;;11.60;;
10430;SDS011;5262;59.958;17.726;2023-02-15T17:03:38;18.67;;;9.60;;
10430;SDS011;5262;59.958;17.726;2023-02-15T17:06:05;23.67;;;9.80;;
10430;SDS011;5262;59.958;17.726;2023-02-15T17:08:48;18.87;;;8.97;;
10430;SDS011;5262;59.958;17.726;2023-02-15T17:11:15;17.83;;;8.67;;
10430;SDS011;5262;59.958;17.726;2023-02-15T17:14:10;18.60;;;9.67;;
10430;SDS011;5262;59.958;17.726;2023-02-15T17:16:45;20.33;;;10.10;;
10430;SDS011;5262;59.958;17.726;2023-02-15T17:19:19;19.70;;;8.80;;
10430;SDS011;5262;59.958;17.726;2023-02-15T17:21:50;24.10;;;9.33;;
10430;SDS011;5262;59.958;17.726;2023-02-15T17:24:19;17.47;;;9.30;;
10430;SDS011;5262;59.958;17.726;2023-02-15T17:26:56;17.17;;;8.67;;
10430;SDS011;5262;59.958;17.726;2023-02-15T17:31:54;17.47;;;9.17;;
10430;SDS011;5262;59.958;17.726;2023-02-15T17:37:13;19.17;;;9.13;;
10430;SDS011;5262;59.958;17.726;2023-02-15T17:39:54;16.23;;;8.07;;
10430;SDS011;5262;59.958;17.726;2023-02-15T17:42:20;18.80;;;9.50;;
10430;SDS011;5262;59.958;17.726;2023-02-15T17:44:45;16.50;;;8.30;;
10430;SDS011;5262;59.958;17.726;2023-02-15T17:47:13;17.67;;;9.53;;
10430;SDS011;5262;59.958;17.726;2023-02-15T17:49:45;17.30;;;8.30;;
10430;SDS011;5262;59.958;17.726;2023-02-15T17:52:14;17.50;;;9.20;;
10430;SDS011;5262;59.958;17.726;2023-02-15T17:54:41;18.53;;;8.77;;
10430;SDS011;5262;59.958;17.726;2023-02-15T17:57:25;18.87;;;8.53;;
10430;SDS011;5262;59.958;17.726;2023-02-15T17:59:52;14.97;;;7.73;;
10430;SDS011;5262;59.958;17.726;2023-02-15T18:02:37;15.53;;;8.67;;
10430;SDS011;5262;59.958;17.726;2023-02-15T18:05:22;17.80;;;8.97;;
10430;SDS011;5262;59.958;17.726;2023-02-15T18:08:10;15.87;;;8.60;;
10430;SDS011;5262;59.958;17.726;2023-02-15T18:10:59;13.80;;;8.30;;
10430;SDS011;5262;59.958;17.726;2023-02-15T18:13:43;14.67;;;8.00;;
10430;SDS011;5262;59.958;17.726;2023-02-15T18:16:13;23.07;;;11.70;;
10430;SDS011;5262;59.958;17.726;2023-02-15T18:18:40;15.07;;;7.80;;
10430;SDS011;5262;59.958;17.726;2023-02-15T18:21:07;17.00;;;8.93;;